createdAt,value
2022-07-30T00:01:37.054Z,100728.84
2022-07-30T00:04:06.753Z,100771.94
2022-07-30T00:06:38.001Z,100745.06
2022-07-30T00:09:07.029Z,100769.22
2022-07-30T00:11:36.023Z,100767.69
2022-07-30T00:14:05.442Z,100771.50
2022-07-30T00:16:34.562Z,100757.50
2022-07-30T00:19:05.262Z,100755.03
2022-07-30T00:21:39.107Z,100761.72
2022-07-30T00:24:09.688Z,100745.13
2022-07-30T00:26:38.691Z,100676.22
2022-07-30T00:29:07.791Z,100747.19
2022-07-30T00:31:36.696Z,100735.84
2022-07-30T00:34:07.350Z,100747.31
2022-07-30T00:36:36.399Z,100749.16
2022-07-30T00:39:08.174Z,100717.06
2022-07-30T00:41:53.541Z,100743.34
2022-07-30T00:44:22.582Z,100730.28
2022-07-30T00:46:52.133Z,100710.31
2022-07-30T00:49:22.858Z,100731.25
2022-07-30T00:51:52.607Z,100746.66
2022-07-30T00:54:22.286Z,100742.91
2022-07-30T00:56:51.550Z,100747.38
2022-07-30T00:59:20.372Z,100737.75
2022-07-30T01:01:49.350Z,100719.28
2022-07-30T01:04:18.446Z,100737.06
2022-07-30T01:06:48.829Z,100736.06
2022-07-30T01:09:17.715Z,100728.81
2022-07-30T01:11:47.000Z,100739.22
2022-07-30T01:14:15.919Z,100738.50
2022-07-30T01:16:45.038Z,100713.66
2022-07-30T01:19:38.602Z,100728.38
2022-07-30T01:22:17.045Z,100726.03
2022-07-30T01:24:56.946Z,100717.97
2022-07-30T01:27:29.960Z,100720.88
2022-07-30T01:30:00.866Z,100718.94
2022-07-30T01:32:32.543Z,100718.16
2022-07-30T01:35:04.194Z,100720.16
2022-07-30T01:37:34.907Z,100722.13
2022-07-30T01:40:04.834Z,100722.69
2022-07-30T01:42:39.802Z,100712.94
2022-07-30T01:45:10.405Z,100704.22
2022-07-30T01:47:41.044Z,100706.84
2022-07-30T01:50:14.707Z,100710.88
2022-07-30T01:52:45.835Z,100715.25
2022-07-30T01:55:21.750Z,100716.69
2022-07-30T01:57:56.803Z,100688.91
2022-07-30T02:00:31.926Z,100706.81
2022-07-30T02:03:00.892Z,100706.16
2022-07-30T02:05:33.134Z,100712.56
2022-07-30T02:08:06.063Z,100711.38
2022-07-30T02:10:37.756Z,100712.34
2022-07-30T02:13:14.048Z,100715.63
2022-07-30T02:15:49.468Z,100711.03
2022-07-30T02:18:24.586Z,100709.88
2022-07-30T02:21:02.634Z,100714.41
2022-07-30T02:23:40.610Z,100714.03
2022-07-30T02:26:16.127Z,100695.75
2022-07-30T02:28:50.732Z,100716.78
2022-07-30T02:31:23.584Z,100717.91
2022-07-30T02:33:57.603Z,100653.16
2022-07-30T02:36:30.905Z,100720.16
2022-07-30T02:39:00.921Z,100727.88
2022-07-30T02:41:32.393Z,100709.28
2022-07-30T02:44:04.169Z,100734.63
2022-07-30T02:46:33.756Z,100704.50
2022-07-30T02:49:39.662Z,100724.53
2022-07-30T02:52:15.668Z,100715.19
2022-07-30T02:54:46.637Z,100713.09
2022-07-30T02:57:16.678Z,100717.44
2022-07-30T02:59:49.135Z,100729.91
2022-07-30T03:02:29.145Z,100722.47
2022-07-30T03:05:00.251Z,100728.38
2022-07-30T03:07:31.104Z,100729.13
2022-07-30T03:10:01.254Z,100710.31
2022-07-30T03:12:32.960Z,100734.47
2022-07-30T03:15:03.802Z,100728.78
2022-07-30T03:17:39.337Z,100717.22
2022-07-30T03:20:11.673Z,100668.06
2022-07-30T03:22:47.155Z,100692.03
2022-07-30T03:25:18.111Z,100741.69
2022-07-30T03:27:49.738Z,100730.50
2022-07-30T03:30:20.083Z,100723.69
2022-07-30T03:32:50.104Z,100718.63
2022-07-30T03:35:20.351Z,100730.50
2022-07-30T03:37:52.392Z,100717.06
2022-07-30T03:40:22.616Z,100728.56
2022-07-30T03:42:52.430Z,100733.78
2022-07-30T03:45:26.553Z,100711.28
2022-07-30T03:48:01.370Z,100727.19
2022-07-30T03:50:36.540Z,100715.03
2022-07-30T03:53:06.875Z,100724.75
2022-07-30T03:55:43.481Z,100716.81
2022-07-30T03:58:35.762Z,100718.53
2022-07-30T04:01:09.037Z,100714.13
2022-07-30T04:03:38.924Z,100721.84
2022-07-30T04:06:08.907Z,100720.38
2022-07-30T04:08:37.726Z,100722.88
2022-07-30T04:11:06.639Z,100729.63
2022-07-30T04:13:47.668Z,100722.94
2022-07-30T04:16:39.189Z,100711.69
2022-07-30T04:19:16.683Z,100725.03
2022-07-30T04:21:48.262Z,100725.81
2022-07-30T04:24:18.985Z,100724.22
2022-07-30T04:26:49.331Z,100728.81
2022-07-30T04:29:24.308Z,100713.19
2022-07-30T04:31:56.277Z,100667.22
2022-07-30T04:34:49.237Z,100722.91
2022-07-30T04:37:25.087Z,100712.25
2022-07-30T04:39:56.199Z,100718.81
2022-07-30T04:42:30.168Z,100710.47
2022-07-30T04:45:06.910Z,100719.06
2022-07-30T04:47:55.193Z,100712.25
2022-07-30T04:50:47.218Z,100713.00
2022-07-30T04:53:20.818Z,100726.41
2022-07-30T04:55:57.323Z,100647.59
2022-07-30T04:58:29.956Z,100713.06
2022-07-30T05:01:01.140Z,100710.91
2022-07-30T05:03:36.729Z,100697.59
2022-07-30T05:06:07.626Z,100711.69
2022-07-30T05:08:41.020Z,100710.81
2022-07-30T05:11:12.934Z,100719.28
2022-07-30T05:13:43.106Z,100713.31
2022-07-30T05:16:16.841Z,100713.72
2022-07-30T05:18:47.845Z,100725.19
2022-07-30T05:21:17.519Z,100726.03
2022-07-30T05:23:50.268Z,100732.78
2022-07-30T05:26:34.848Z,100727.31
2022-07-30T05:29:07.007Z,100736.38
2022-07-30T05:31:52.468Z,100742.00
2022-07-30T05:34:24.255Z,100739.94
2022-07-30T05:36:54.507Z,100741.56
2022-07-30T05:39:24.631Z,100743.97
2022-07-30T05:42:29.398Z,100746.50
2022-07-30T05:45:01.179Z,100749.59
2022-07-30T05:47:30.140Z,100752.03
2022-07-30T05:50:05.227Z,100749.56
2022-07-30T05:52:35.076Z,100741.09
2022-07-30T05:55:15.495Z,100741.44
2022-07-30T05:57:55.236Z,100739.84
2022-07-30T06:00:24.588Z,100687.31
2022-07-30T06:02:56.709Z,100744.13
2022-07-30T06:05:29.659Z,100744.13
2022-07-30T06:08:03.053Z,100751.34
2022-07-30T06:10:33.869Z,100751.28
2022-07-30T06:13:03.279Z,100748.75
2022-07-30T06:15:32.471Z,100747.56
2022-07-30T06:18:02.654Z,100742.09
2022-07-30T06:20:54.427Z,100744.88
2022-07-30T06:23:25.977Z,100738.59
2022-07-30T06:26:24.417Z,100705.88
2022-07-30T06:28:53.362Z,100735.22
2022-07-30T06:31:29.727Z,100734.63
2022-07-30T06:33:59.093Z,100719.88
2022-07-30T06:36:33.184Z,100735.03
2022-07-30T06:39:12.886Z,100739.91
2022-07-30T06:42:17.299Z,100729.41
2022-07-30T06:45:05.408Z,100735.59
2022-07-30T06:47:58.786Z,100699.88
2022-07-30T06:50:29.047Z,100738.56
2022-07-30T06:52:59.409Z,100735.16
2022-07-30T06:55:39.094Z,100712.66
2022-07-30T06:58:08.554Z,100712.13
2022-07-30T07:00:56.022Z,100732.22
2022-07-30T07:03:39.957Z,100730.75
2022-07-30T07:06:10.471Z,100737.22
2022-07-30T07:08:42.817Z,100727.59
2022-07-30T07:11:15.557Z,100739.19
2022-07-30T07:13:50.770Z,100732.81
2022-07-30T07:16:27.964Z,100713.44
2022-07-30T07:18:59.128Z,100728.78
2022-07-30T07:21:27.925Z,100723.94
2022-07-30T07:24:00.489Z,100726.19
2022-07-30T07:26:55.029Z,100717.47
2022-07-30T07:29:24.241Z,100717.84
2022-07-30T07:32:05.419Z,100712.56
2022-07-30T07:34:40.130Z,100725.28
2022-07-30T07:37:13.166Z,100672.69
2022-07-30T07:39:45.235Z,100706.53
2022-07-30T07:42:14.324Z,100703.53
2022-07-30T07:44:48.083Z,100699.84
2022-07-30T07:47:17.782Z,100712.06
2022-07-30T07:49:58.971Z,100630.06
2022-07-30T07:52:28.633Z,100713.31
2022-07-30T07:54:59.381Z,100696.41
2022-07-30T07:57:30.362Z,100694.81
2022-07-30T08:00:00.891Z,100700.59
2022-07-30T08:02:32.887Z,100689.06
2022-07-30T08:05:10.919Z,100686.47
2022-07-30T08:07:46.663Z,100696.22
2022-07-30T08:10:35.529Z,100694.41
2022-07-30T08:13:52.957Z,100689.97
2022-07-30T08:16:35.269Z,100692.19
2022-07-30T08:19:23.148Z,100654.13
2022-07-30T08:22:03.520Z,100681.50
2022-07-30T08:24:34.287Z,100685.59
2022-07-30T08:27:05.685Z,100682.25
2022-07-30T08:29:35.142Z,100679.63
2022-07-30T08:32:04.812Z,100671.31
2022-07-30T08:34:36.809Z,100672.97
2022-07-30T08:37:07.685Z,100666.25
2022-07-30T08:39:37.764Z,100672.31
2022-07-30T08:42:08.369Z,100664.19
2022-07-30T08:44:39.029Z,100668.47
2022-07-30T08:47:11.047Z,100659.13
2022-07-30T08:50:04.677Z,100658.41
2022-07-30T08:52:38.341Z,100650.75
2022-07-30T08:55:10.059Z,100651.59
2022-07-30T08:57:44.654Z,100645.53
2022-07-30T09:00:15.622Z,100638.53
2022-07-30T09:02:45.226Z,100650.25
2022-07-30T09:05:15.162Z,100642.28
2022-07-30T09:07:44.161Z,100633.59
2022-07-30T09:10:19.955Z,100635.53
2022-07-30T09:12:50.391Z,100642.81
2022-07-30T09:15:22.513Z,100634.13
2022-07-30T09:17:56.087Z,100628.44
2022-07-30T09:20:31.470Z,100596.25
2022-07-30T09:23:06.634Z,100629.47
2022-07-30T09:25:52.246Z,100619.50
2022-07-30T09:28:41.334Z,100627.19
2022-07-30T09:31:16.302Z,100634.97
2022-07-30T09:34:03.699Z,100623.47
2022-07-30T09:36:51.213Z,100639.66
2022-07-30T09:39:40.703Z,100635.44
2022-07-30T09:42:26.076Z,100638.44
2022-07-30T09:45:09.464Z,100622.28
2022-07-30T09:49:08.074Z,100636.56
2022-07-30T09:51:56.359Z,100635.56
2022-07-30T09:58:50.258Z,100619.97
2022-07-30T10:01:49.886Z,100622.56
2022-07-30T10:04:34.884Z,100630.50
2022-07-30T10:07:25.196Z,100632.25
2022-07-30T10:10:01.734Z,100636.69
2022-07-30T10:12:38.942Z,100629.16
2022-07-30T10:15:13.559Z,100634.66
2022-07-30T10:17:46.942Z,100625.25
2022-07-30T10:20:28.108Z,100618.34
2022-07-30T10:23:17.100Z,100616.81
2022-07-30T10:26:06.025Z,100610.31
2022-07-30T10:28:55.420Z,100592.94
2022-07-30T10:31:48.663Z,100614.34
2022-07-30T10:34:23.745Z,100619.88
2022-07-30T10:37:01.731Z,100613.47
2022-07-30T10:39:37.318Z,100616.75
2022-07-30T10:42:29.848Z,100589.03
2022-07-30T10:45:24.303Z,100615.03
2022-07-30T10:47:56.393Z,100616.19
2022-07-30T10:50:29.131Z,100607.44
2022-07-30T10:52:59.273Z,100616.88
2022-07-30T10:55:38.913Z,100604.31
2022-07-30T10:58:10.242Z,100606.06
2022-07-30T11:01:00.349Z,100578.84
2022-07-30T11:03:38.786Z,100608.13
2022-07-30T11:06:29.958Z,100604.81
2022-07-30T11:09:01.197Z,100604.06
2022-07-30T11:12:02.350Z,100592.63
2022-07-30T11:14:57.363Z,100594.13
2022-07-30T11:17:26.914Z,100566.41
2022-07-30T11:20:11.674Z,100592.88
2022-07-30T11:22:44.883Z,100589.03
2022-07-30T11:25:54.699Z,100553.63
2022-07-30T11:28:39.796Z,100568.38
2022-07-30T11:31:56.313Z,100568.81
2022-07-30T11:34:31.025Z,100588.41
2022-07-30T11:37:21.802Z,100584.78
2022-07-30T11:40:11.358Z,100580.72
2022-07-30T11:42:42.744Z,100591.66
2022-07-30T11:45:29.772Z,100594.19
2022-07-30T11:48:01.358Z,100574.09
2022-07-30T11:50:33.294Z,100583.50
2022-07-30T11:53:04.524Z,100569.69
2022-07-30T11:55:36.605Z,100576.78
2022-07-30T11:58:07.517Z,100571.84
2022-07-30T12:00:39.807Z,100570.19
2022-07-30T12:03:11.706Z,100565.50
2022-07-30T12:05:42.008Z,100555.16
2022-07-30T12:08:35.581Z,100563.13
2022-07-30T12:11:05.980Z,100554.13
2022-07-30T12:13:45.713Z,100546.06
2022-07-30T12:16:18.540Z,100491.41
2022-07-30T12:18:48.433Z,100549.84
2022-07-30T12:21:17.879Z,100527.94
2022-07-30T12:23:55.677Z,100480.72
2022-07-30T12:26:27.459Z,100534.47
2022-07-30T12:28:59.601Z,100529.81
2022-07-30T12:31:29.358Z,100535.88
2022-07-30T12:34:00.450Z,100525.13
2022-07-30T12:36:32.095Z,100532.13
2022-07-30T12:39:02.376Z,100515.28
2022-07-30T12:41:46.790Z,100516.88
2022-07-30T12:44:37.851Z,100510.41
2022-07-30T12:47:08.531Z,100515.81
2022-07-30T12:49:48.835Z,100515.09
2022-07-30T12:52:28.177Z,100507.66
2022-07-30T12:55:01.348Z,100502.97
2022-07-30T12:58:00.784Z,100510.28
2022-07-30T13:00:47.984Z,100490.94
2022-07-30T13:03:21.922Z,100485.78
2022-07-30T13:05:55.275Z,100495.56
2022-07-30T13:08:50.123Z,100492.91
2022-07-30T13:11:24.781Z,100485.63
2022-07-30T13:13:56.493Z,100492.78
2022-07-30T13:16:25.625Z,100464.00
2022-07-30T13:18:54.655Z,100487.09
2022-07-30T13:21:24.445Z,100464.56
2022-07-30T13:23:53.577Z,100476.38
2022-07-30T13:26:22.503Z,100392.88
2022-07-30T13:28:51.615Z,100475.94
2022-07-30T13:31:23.060Z,100458.25
2022-07-30T13:33:52.299Z,100468.13
2022-07-30T13:36:21.530Z,100471.66
2022-07-30T13:38:52.272Z,100463.66
2022-07-30T13:41:21.599Z,100455.00
2022-07-30T13:43:50.798Z,100456.88
2022-07-30T13:46:22.601Z,100427.13
2022-07-30T13:48:51.938Z,100437.69
2022-07-30T13:51:20.993Z,100441.25
2022-07-30T13:53:50.024Z,100443.25
2022-07-30T13:56:19.601Z,100441.91
2022-07-30T13:58:51.769Z,100441.59
2022-07-30T14:01:22.109Z,100432.50
2022-07-30T14:03:51.224Z,100427.53
2022-07-30T14:06:20.450Z,100427.72
2022-07-30T14:08:49.551Z,100418.91
2022-07-30T14:11:18.950Z,100374.63
2022-07-30T14:13:48.351Z,100420.31
2022-07-30T14:16:43.667Z,100406.78
2022-07-30T14:19:09.423Z,100417.56
2022-07-30T14:21:53.063Z,100404.53
2022-07-30T14:24:22.355Z,100415.31
2022-07-30T14:26:57.406Z,100396.16
2022-07-30T14:29:27.265Z,100408.00
2022-07-30T14:31:57.067Z,100398.91
2022-07-30T14:34:27.546Z,100391.09
2022-07-30T14:36:56.451Z,100329.34
2022-07-30T14:39:26.195Z,100372.94
2022-07-30T14:41:56.254Z,100366.78
2022-07-30T14:44:25.452Z,100382.13
2022-07-30T14:46:54.677Z,100361.22
2022-07-30T14:49:24.115Z,100373.16
2022-07-30T14:51:54.853Z,100380.19
2022-07-30T14:54:28.349Z,100370.84
2022-07-30T14:56:58.595Z,100373.72
2022-07-30T14:59:28.793Z,100361.94
2022-07-30T15:01:58.174Z,100362.47
2022-07-30T15:04:27.119Z,100364.25
2022-07-30T15:06:57.409Z,100371.69
2022-07-30T15:09:26.349Z,100360.28
2022-07-30T15:12:10.987Z,100359.09
2022-07-30T15:14:41.854Z,100365.06
2022-07-30T15:17:14.098Z,100364.63
2022-07-30T15:19:49.462Z,100347.84
2022-07-30T15:22:21.208Z,100363.41
2022-07-30T15:24:50.280Z,100361.28
2022-07-30T15:27:22.397Z,100357.16
2022-07-30T15:29:56.697Z,100357.66
2022-07-30T15:32:25.844Z,100355.97
2022-07-30T15:34:55.319Z,100358.94
2022-07-30T15:37:25.999Z,100364.25
2022-07-30T15:39:55.076Z,100362.13
2022-07-30T15:42:27.491Z,100361.91
2022-07-30T15:45:16.217Z,100357.59
2022-07-30T15:47:48.808Z,100361.31
2022-07-30T15:50:20.746Z,100360.81
2022-07-30T15:52:51.370Z,100355.97
2022-07-30T15:55:20.370Z,100331.22
2022-07-30T15:57:50.337Z,100340.63
2022-07-30T16:00:19.532Z,100343.91
2022-07-30T16:02:48.790Z,100354.19
2022-07-30T16:05:17.775Z,100348.75
2022-07-30T16:07:46.896Z,100351.34
2022-07-30T16:10:17.233Z,100362.34
2022-07-30T16:12:46.317Z,100357.28
2022-07-30T16:15:16.326Z,100339.38
2022-07-30T16:17:45.477Z,100338.56
2022-07-30T16:20:16.897Z,100362.81
2022-07-30T16:22:46.018Z,100327.66
2022-07-30T16:25:17.033Z,100360.72
2022-07-30T16:27:45.953Z,100335.44
2022-07-30T16:30:15.040Z,100255.50
2022-07-30T16:32:47.088Z,100363.00
2022-07-30T16:35:16.202Z,100360.88
2022-07-30T16:37:45.247Z,100327.34
2022-07-30T16:40:14.673Z,100336.59
2022-07-30T16:42:46.698Z,100350.09
2022-07-30T16:45:17.642Z,100373.16
2022-07-30T16:47:46.527Z,100359.69
2022-07-30T16:50:15.818Z,100374.50
2022-07-30T16:52:44.781Z,100369.94
2022-07-30T16:55:13.933Z,100362.06
2022-07-30T16:57:44.252Z,100373.44
2022-07-30T17:00:14.874Z,100379.56
2022-07-30T17:02:43.702Z,100376.69
2022-07-30T17:05:13.922Z,100348.00
2022-07-30T17:07:43.644Z,100373.50
2022-07-30T17:10:13.105Z,100378.78
2022-07-30T17:12:50.919Z,100362.78
2022-07-30T17:15:20.342Z,100367.78
2022-07-30T17:18:01.389Z,100377.69
2022-07-30T17:20:30.365Z,100339.94
2022-07-30T17:22:59.619Z,100363.19
2022-07-30T17:25:28.838Z,100373.09
2022-07-30T17:28:00.356Z,100317.84
2022-07-30T17:30:30.595Z,100379.72
2022-07-30T17:32:59.683Z,100377.47
2022-07-30T17:35:29.006Z,100375.53
2022-07-30T17:37:57.978Z,100389.50
2022-07-30T17:40:31.677Z,100372.94
2022-07-30T17:43:04.888Z,100369.25
2022-07-30T17:45:35.806Z,100381.72
2022-07-30T17:48:05.176Z,100372.81
2022-07-30T17:50:35.642Z,100388.00
2022-07-30T17:53:05.794Z,100299.47
2022-07-30T17:55:35.766Z,100373.44
2022-07-30T17:58:07.828Z,100395.34
2022-07-30T18:00:36.781Z,100383.47
2022-07-30T18:03:05.988Z,100398.97
2022-07-30T18:05:35.299Z,100390.44
2022-07-30T18:08:04.805Z,100395.72
2022-07-30T18:10:33.918Z,100413.44
2022-07-30T18:13:25.662Z,100410.38
2022-07-30T18:15:54.193Z,100384.81
2022-07-30T18:18:23.111Z,100422.47
2022-07-30T18:20:52.898Z,100416.38
2022-07-30T18:23:22.765Z,100402.34
2022-07-30T18:25:54.400Z,100410.53
2022-07-30T18:28:25.009Z,100422.38
2022-07-30T18:30:56.154Z,100424.06
2022-07-30T18:33:26.013Z,100413.47
2022-07-30T18:35:54.784Z,100428.00
2022-07-30T18:38:23.762Z,100419.53
2022-07-30T18:40:58.735Z,100429.63
2022-07-30T18:43:28.532Z,100423.34
2022-07-30T18:46:00.335Z,100428.06
2022-07-30T18:48:29.808Z,100441.47
2022-07-30T18:51:01.908Z,100441.31
2022-07-30T18:53:31.152Z,100441.94
2022-07-30T18:56:00.391Z,100436.09
2022-07-30T18:58:29.516Z,100440.28
2022-07-30T19:00:59.904Z,100439.03
2022-07-30T19:03:28.733Z,100424.78
2022-07-30T19:05:57.855Z,100431.53
2022-07-30T19:08:28.174Z,100426.44
2022-07-30T19:10:57.376Z,100433.16
2022-07-30T19:13:26.556Z,100439.88
2022-07-30T19:15:55.931Z,100433.16
2022-07-30T19:18:26.915Z,100428.03
2022-07-30T19:20:56.201Z,100351.69
2022-07-30T19:23:25.320Z,100432.19
2022-07-30T19:25:55.013Z,100434.53
2022-07-30T19:28:25.893Z,100422.59
2022-07-30T19:30:55.443Z,100439.19
2022-07-30T19:33:26.298Z,100436.88
2022-07-30T19:35:55.348Z,100435.41
2022-07-30T19:38:24.901Z,100440.03
2022-07-30T19:40:53.970Z,100429.97
2022-07-30T19:46:12.241Z,100441.69
2022-07-30T19:48:44.225Z,100428.69
2022-07-30T19:51:20.371Z,100435.00
2022-07-30T19:53:50.113Z,100438.56
2022-07-30T19:56:19.669Z,100224.75
2022-07-30T19:58:48.617Z,100435.59
2022-07-30T20:01:18.735Z,100420.53
2022-07-30T20:03:53.263Z,100421.97
2022-07-30T20:06:22.224Z,100419.03
2022-07-30T20:08:52.463Z,100427.44
2022-07-30T20:11:35.942Z,100423.25
2022-07-30T20:14:05.675Z,100426.16
2022-07-30T20:16:35.644Z,100413.19
2022-07-30T20:19:06.520Z,100434.78
2022-07-30T20:21:56.871Z,100432.47
2022-07-30T20:24:26.579Z,100434.16
2022-07-30T20:26:55.777Z,100394.94
2022-07-30T20:29:24.665Z,100434.56
2022-07-30T20:31:53.748Z,100432.91
2022-07-30T20:34:25.972Z,100424.09
2022-07-30T20:36:56.467Z,100423.22
2022-07-30T20:39:26.020Z,100401.44
2022-07-30T20:42:08.020Z,100431.22
2022-07-30T20:44:38.237Z,100405.00
2022-07-30T20:47:08.369Z,100434.13
2022-07-30T20:49:40.400Z,100442.13
2022-07-30T20:52:10.745Z,100438.97
2022-07-30T20:54:45.037Z,100419.47
2022-07-30T20:57:15.774Z,100416.09
2022-07-30T20:59:44.854Z,100410.66
2022-07-30T21:02:15.207Z,100438.75
2022-07-30T21:04:47.629Z,100448.38
2022-07-30T21:07:20.490Z,100440.41
2022-07-30T21:12:38.717Z,100449.44
2022-07-30T21:15:23.074Z,100447.09
2022-07-30T21:17:53.205Z,100441.81
2022-07-30T21:20:27.546Z,100443.50
2022-07-30T21:22:57.341Z,100444.56
2022-07-30T21:25:33.039Z,100430.91
2022-07-30T21:28:03.265Z,100439.50
2022-07-30T21:30:34.233Z,100446.63
2022-07-30T21:33:03.032Z,100437.38
2022-07-30T21:35:34.202Z,100430.00
2022-07-30T21:38:03.150Z,100428.53
2022-07-30T21:40:32.198Z,100425.19
2022-07-30T21:43:01.510Z,100444.50
2022-07-30T21:45:39.498Z,100439.06
2022-07-30T21:48:10.864Z,100441.75
2022-07-30T21:50:41.941Z,100434.41
2022-07-30T21:53:12.087Z,100445.28
2022-07-30T21:55:52.793Z,100442.75
2022-07-30T21:58:25.679Z,100435.63
2022-07-30T22:01:16.249Z,100440.22
2022-07-30T22:06:39.832Z,100419.19
2022-07-30T22:09:18.974Z,100430.13
2022-07-30T22:12:01.138Z,100443.97
2022-07-30T22:14:31.499Z,100431.66
2022-07-30T22:17:00.591Z,100426.75
2022-07-30T22:19:34.103Z,100436.44
2022-07-30T22:22:25.930Z,100434.56
2022-07-30T22:24:53.280Z,100446.03
2022-07-30T22:27:22.120Z,100426.78
2022-07-30T22:29:51.018Z,100434.72
2022-07-30T22:32:25.228Z,100405.34
2022-07-30T22:34:55.163Z,100421.50
2022-07-30T22:37:31.357Z,100432.78
2022-07-30T22:40:03.580Z,100420.75
2022-07-30T22:42:36.580Z,100422.44
2022-07-30T22:45:34.043Z,100429.56
2022-07-30T22:48:10.075Z,100426.06
2022-07-30T22:50:40.872Z,100430.22
2022-07-30T22:54:02.489Z,100427.34
2022-07-30T22:56:00.376Z,100431.41
2022-07-30T22:58:29.916Z,100429.75
2022-07-30T23:00:58.878Z,100434.09
2022-07-30T23:03:27.704Z,100424.94
2022-07-30T23:05:57.255Z,100404.06
2022-07-30T23:08:30.022Z,100421.75
2022-07-30T23:10:59.734Z,100419.41
2022-07-30T23:12:14.919Z,100440.47
2022-07-30T23:12:26.824Z,100448.31
2022-07-30T23:12:33.052Z,100418.38
2022-07-30T23:13:31.109Z,100413.31
2022-07-30T23:15:59.854Z,100423.16
2022-07-30T23:18:28.979Z,100416.03
2022-07-30T23:21:00.417Z,100406.78
2022-07-30T23:23:33.814Z,100415.56
2022-07-30T23:26:03.167Z,100414.38
2022-07-30T23:28:32.166Z,100412.66
2022-07-30T23:31:01.081Z,100414.84
2022-07-30T23:33:30.617Z,100418.81
2022-07-30T23:36:00.398Z,100420.50
2022-07-30T23:38:30.809Z,100413.63
2022-07-30T23:41:01.976Z,100416.47
2022-07-30T23:43:31.035Z,100402.78
2022-07-30T23:45:59.939Z,100394.13
2022-07-30T23:48:29.429Z,100407.97
2022-07-30T23:50:58.359Z,100407.69
2022-07-30T23:53:27.096Z,100390.31
2022-07-30T23:55:58.019Z,100392.84
2022-07-30T23:58:26.834Z,100389.03
